Latest Weather Observations for Wilsons Promontory

IDV60801

Issued at 11:52 am EDT Friday 15 November 2019 (issued every 10 minutes, with the page automatically refreshed every 10 minutes)

About weather observations | Map of weather stations | Latest weather observations for VIC | Other Formats
Station Details ID: 085096 Name: WILSONS PROMONTORY LIGHTHOUSE Lat: -39.13 Lon: 146.42 Height: 95.0 m
Data from the previous 72 hours. | See also: Recent months at Wilsons Promontory
Date/Time
EDT
Temp
°C
App
Temp
°C
Dew
Point
°C
Rel
Hum
%
Delta-T
°C
Wind Press
QNH
hPa
Press
MSL
hPa
Rain since
9am
mm
Dir  Spd
km/h
Gust
km/h
Spd
kts
Gust
kts
15/11:44am 11.6 4.1 9.3 86 1.2 W 39 74 21 40 1006.4 - 2.8
15/11:43am 11.8 5.1 9.5 86 1.2 W 35 74 19 40 1006.6 - 2.8
15/11:30am 12.6 1.8 10.0 84 1.3 W 57 80 31 43 1006.1 - 2.0
15/11:00am 12.7 2.7 10.6 87 1.1 W 54 78 29 42 1006.0 - 2.0
15/10:30am 12.3 2.2 10.4 88 1.0 W 54 83 29 45 1006.0 - 1.6
15/10:00am 12.2 1.7 10.3 88 1.0 W 56 83 30 45 1006.2 - 1.6
15/09:38am 11.9 2.0 9.8 87 1.1 W 52 91 28 49 1005.9 - 1.4
15/09:30am 12.1 3.7 9.7 85 1.2 W 44 70 24 38 1006.2 - 0.8
15/09:00am 12.5 1.7 10.0 85 1.3 W 57 82 31 44 1006.0 1005.9 2.2
15/08:30am 12.1 2.2 9.8 86 1.2 W 52 76 28 41 1005.9 - 2.0
15/08:00am 11.9 1.6 9.6 86 1.2 W 54 80 29 43 1006.0 - 2.0
15/07:30am 12.5 1.7 10.0 85 1.3 W 57 83 31 45 1005.9 - 1.8
15/07:00am 11.9 1.9 9.5 85 1.2 W 52 82 28 44 1005.7 - 1.8
15/06:30am 12.1 0.5 9.8 86 1.2 W 61 87 33 47 1005.1 - 1.8
15/06:00am 11.4 0.7 9.5 88 1.0 W 56 78 30 42 1005.6 1005.5 1.8
15/05:39am 11.6 1.3 9.7 88 1.0 W 54 93 29 50 1005.3 - 1.4
15/05:34am 11.6 -2.5 9.7 88 1.0 W 74 93 40 50 1004.8 - 1.4
15/05:30am 11.4 1.4 9.3 87 1.1 W 52 80 28 43 1005.2 - 1.4
15/05:00am 11.4 0.0 9.1 86 1.2 W 59 83 32 45 1005.0 - 0.2
15/04:30am 12.2 2.3 9.6 84 1.3 W 52 80 28 43 1005.2 - 0.0
15/04:00am 12.0 1.3 9.6 85 1.2 W 56 91 30 49 1004.9 - 0.0
15/03:30am 12.3 0.6 9.3 82 1.5 W 61 89 33 48 1005.1 - 0.0
15/03:00am 11.7 -0.1 9.1 84 1.3 W 61 85 33 46 1005.0 1005.0 0.0
15/02:30am 12.9 0.0 9.0 77 2.0 W 67 93 36 50 1005.6 - 0.0
15/02:00am 12.9 0.7 9.0 77 2.0 W 63 93 34 50 1005.3 - 0.0
15/01:30am 12.7 -0.1 9.5 81 1.6 W 67 89 36 48 1005.2 - 0.0
15/01:00am 12.5 0.1 9.5 82 1.5 W 65 91 35 49 1005.9 - 0.0
15/12:30am 12.9 1.5 9.2 78 1.9 W 59 85 32 46 1006.8 - 0.0
15/12:00am 12.9 1.0 8.8 76 2.1 W 61 89 33 48 1007.0 1006.9 0.0
 
Date/Time
EDT
Temp
°C
App
Temp
°C
Dew
Point
°C
Rel
Hum
%
Delta-T
°C
Wind Press
QNH
hPa
Press
MSL
hPa
Rain since
9am
mm
Dir  Spd
km/h
Gust
km/h
Spd
kts
Gust
kts
14/11:30pm 12.8 2.3 8.7 76 2.1 W 54 82 29 44 1007.5 - 0.0
14/11:00pm 13.0 2.6 9.1 77 2.0 W 54 83 29 45 1007.5 - 0.0
14/10:30pm 13.1 2.4 9.5 79 1.8 W 56 76 30 41 1007.8 - 0.0
14/10:00pm 13.2 2.9 9.5 78 1.9 W 54 80 29 43 1008.2 - 0.0
14/09:30pm 13.3 2.5 9.9 80 1.8 W 57 76 31 41 1008.3 - 0.0
14/09:00pm 13.3 3.9 10.3 82 1.6 W 50 72 27 39 1008.5 1008.5 0.0
14/08:30pm 13.3 3.6 10.5 83 1.5 W 52 70 28 38 1008.2 - 0.0
14/08:00pm 13.2 3.9 10.6 84 1.4 W 50 78 27 42 1008.6 - 0.0
14/07:30pm 13.2 3.1 10.4 83 1.5 W 54 76 29 41 1008.5 - 0.0
14/07:00pm 13.4 2.7 10.4 82 1.6 W 57 82 31 44 1008.3 - 0.0
14/06:30pm 13.5 2.9 10.5 82 1.6 W 57 78 31 42 1008.5 - 0.0
14/06:00pm 13.6 3.1 10.4 81 1.7 W 56 78 30 42 1008.5 1008.5 0.0
14/05:31pm 14.0 2.1 10.2 78 2.0 W 63 82 34 44 1008.4 - 0.0
14/05:30pm 14.0 1.8 10.2 78 2.0 W 65 82 35 44 1008.4 - 0.0
14/05:00pm 14.2 2.7 10.0 76 2.2 W 61 80 33 43 1008.6 - 0.0
14/04:30pm 14.6 3.9 10.2 75 2.3 W 57 83 31 45 1008.3 - 0.0
14/04:00pm 15.4 2.3 9.7 69 3.0 W 69 89 37 48 1008.5 - 0.0
14/03:30pm 15.4 2.2 9.5 68 3.1 W 69 95 37 51 1008.8 - 0.0
14/03:00pm 15.4 3.7 9.5 68 3.1 W 61 87 33 47 1008.9 1008.9 0.0
14/02:30pm 15.4 5.8 9.3 67 3.2 W 50 83 27 45 1009.2 - 0.0
14/02:00pm 14.7 4.7 9.3 70 2.8 W 52 82 28 44 1009.4 - 0.0
14/01:30pm 14.4 5.9 9.2 71 2.7 W 44 83 24 45 1009.7 - 0.0
14/01:00pm 14.1 3.8 9.5 74 2.4 W 54 83 29 45 1010.2 - 0.0
14/12:30pm 13.4 2.1 9.5 77 2.0 W 59 96 32 52 1010.3 - 0.0
14/12:00pm 13.9 2.7 9.9 77 2.1 W 59 83 32 45 1010.4 1010.4 0.0
14/11:30am 13.7 2.1 9.7 77 2.1 W 61 87 33 47 1010.2 - 0.0
14/11:00am 14.1 2.8 9.5 74 2.4 W 59 83 32 45 1010.3 - 0.0
14/10:30am 13.9 1.5 9.7 76 2.2 W 65 91 35 49 1010.0 - 0.0
14/10:00am 13.7 1.8 9.9 78 2.0 W 63 93 34 50 1010.0 - 0.0
14/09:30am 13.1 0.4 9.9 81 1.7 W 67 102 36 55 1009.6 - 0.0
14/09:00am 12.8 1.6 10.0 83 1.4 W 59 87 32 47 1010.4 1010.4 2.8
14/08:30am 12.7 1.9 10.1 84 1.3 W 57 96 31 52 1010.1 - 2.8
14/08:00am 12.5 0.6 10.2 86 1.2 W 63 95 34 51 1009.8 - 2.8
14/07:30am 12.4 0.5 10.0 85 1.2 W 63 91 34 49 1009.5 - 2.6
14/07:13am 12.0 0.8 9.7 86 1.2 W 59 93 32 50 1009.5 - 2.6
14/07:03am 11.5 -4.2 9.2 86 1.2 W 82 102 44 55 1008.9 - 2.6
14/07:00am 11.5 0.1 9.1 85 1.2 W 59 102 32 55 1009.5 - 2.6
14/06:59am 11.6 0.6 9.2 85 1.2 W 57 102 31 55 1009.3 - 2.6
14/06:41am 12.2 2.3 9.6 84 1.3 W 52 83 28 45 1009.7 - 2.6
14/06:30am 12.1 -1.6 9.7 85 1.2 W 72 102 39 55 1009.3 - 2.6
14/06:28am 12.1 -2.7 9.7 85 1.2 W 78 102 42 55 1009.1 - 2.6
14/06:00am 12.1 1.5 9.8 86 1.2 W 56 82 30 44 1009.9 1009.9 2.6
14/05:30am 11.6 -0.1 9.3 86 1.2 W 61 87 33 47 1009.5 - 2.6
14/05:00am 11.8 1.9 9.7 87 1.1 W 52 76 28 41 1009.9 - 2.6
14/04:30am 11.7 1.4 9.8 88 1.0 W 54 74 29 40 1010.2 - 2.6
14/04:00am 11.7 2.1 9.6 87 1.1 W 50 78 27 42 1010.2 - 2.4
14/03:30am 11.8 3.4 9.5 86 1.2 W 44 70 24 38 1010.7 - 2.0
14/03:00am 12.2 3.4 9.6 84 1.3 W 46 74 25 40 1011.2 1011.2 2.0
14/02:30am 12.2 4.0 9.8 85 1.2 W 43 61 23 33 1011.1 - 2.0
14/02:00am 12.2 3.9 9.9 86 1.2 W 44 72 24 39 1011.2 - 2.0
14/01:30am 12.2 3.9 10.1 87 1.1 W 44 69 24 37 1011.3 - 2.0
14/01:00am 12.0 2.9 9.9 87 1.1 W 48 74 26 40 1011.1 - 2.0
14/12:30am 11.9 2.0 9.8 87 1.1 W 52 78 28 42 1010.9 - 2.0
14/12:00am 12.1 2.7 10.2 88 1.0 W 50 69 27 37 1011.3 1011.3 1.8
 
Date/Time
EDT
Temp
°C
App
Temp
°C
Dew
Point
°C
Rel
Hum
%
Delta-T
°C
Wind Press
QNH
hPa
Press
MSL
hPa
Rain since
9am
mm
Dir  Spd
km/h
Gust
km/h
Spd
kts
Gust
kts
13/11:30pm 11.9 2.1 10.1 89 0.9 W 52 70 28 38 1011.3 - 1.8
13/11:03pm 12.0 2.5 9.9 87 1.1 W 50 69 27 37 1011.2 - 1.8
13/11:00pm 12.1 2.7 10.0 87 1.1 W 50 67 27 36 1011.4 - 1.8
13/10:30pm 12.6 2.9 10.3 86 1.2 W 52 70 28 38 1011.4 - 1.4
13/10:00pm 12.3 2.9 10.2 87 1.1 W 50 72 27 39 1011.2 - 1.4
13/09:30pm 12.3 1.5 10.0 86 1.2 W 57 83 31 45 1010.9 - 1.4
13/09:00pm 12.4 2.6 10.0 85 1.2 W 52 78 28 42 1011.0 1011.0 1.4
13/08:30pm 12.5 2.7 10.2 86 1.2 W 52 80 28 43 1010.5 - 1.4
13/08:00pm 12.6 2.2 10.5 87 1.1 W 56 78 30 42 1010.1 - 1.4
13/07:30pm 12.4 1.4 10.6 89 0.9 W 59 83 32 45 1009.5 - 1.4
13/07:00pm 12.0 -0.6 10.2 89 0.9 W 67 95 36 51 1008.7 - 1.4
13/06:30pm 12.4 0.1 10.1 86 1.2 W 65 95 35 51 1008.4 - 0.4
13/06:00pm 12.2 0.6 9.9 86 1.2 W 61 91 33 49 1008.6 1008.6 0.4
13/05:30pm 12.6 -0.1 9.8 83 1.4 W 67 117 36 63 1008.4 - 0.2
13/05:00pm 12.6 -1.4 10.0 84 1.3 W 74 104 40 56 1007.9 - 0.2
13/04:30pm 12.4 -1.7 9.8 84 1.3 W 74 106 40 57 1008.3 - 0.2
13/04:00pm 12.1 -1.7 9.5 84 1.3 W 72 106 39 57 1008.7 - 0.2
13/03:46pm 12.0 -3.4 9.0 82 1.5 W 80 107 43 58 1008.0 - 0.2
13/03:39pm 12.6 1.8 9.2 80 1.7 W 56 100 30 54 1008.9 - 0.2
13/03:30pm 12.5 -2.8 9.3 81 1.6 W 80 109 43 59 1008.6 - 0.2
13/03:26pm 12.3 -3.5 9.1 81 1.6 W 82 107 44 58 1008.0 - 0.2
13/03:00pm 11.5 -0.8 8.7 83 1.4 W 63 104 34 56 1009.2 1009.2 0.2
13/02:45pm 11.4 -0.6 8.4 82 1.5 W 61 98 33 53 1009.2 - 0.2
13/02:42pm 11.4 0.2 8.4 82 1.5 W 57 104 31 56 1009.3 - 0.0
13/02:30pm 11.3 -4.4 7.8 79 1.7 W 80 124 43 67 1008.8 - 0.0
13/02:16pm 11.7 -5.0 7.6 76 2.0 W 85 107 46 58 1008.3 - 0.0
13/02:00pm 12.0 0.2 7.5 74 2.2 W 59 93 32 50 1009.5 - 0.0
13/01:30pm 12.6 -1.5 6.6 67 2.9 W 70 100 38 54 1009.0 - 0.0
13/01:00pm 12.5 -1.1 6.3 66 3.0 W 67 93 36 50 1008.7 - 0.0
13/12:30pm 12.9 -0.5 6.9 67 2.9 W 67 95 36 51 1009.2 - 0.0
13/12:00pm 12.6 -1.0 6.0 64 3.1 W 67 96 36 52 1009.4 1009.4 0.0
13/11:54am 12.6 -2.3 6.2 65 3.0 W 74 96 40 52 1009.4 - 0.0
13/11:53am 12.5 -3.6 6.1 65 3.0 W 80 96 43 52 1009.0 - 0.0
13/11:30am 11.6 0.9 6.3 70 2.5 W 52 83 28 45 1010.1 - 0.0
13/11:00am 12.6 2.0 5.3 61 3.4 W 50 80 27 43 1010.0 - 0.0
13/10:30am 13.0 2.6 6.1 63 3.3 W 50 76 27 41 1010.3 - 0.0
13/10:00am 12.1 0.0 4.3 59 3.5 W 57 80 31 43 1009.7 - 0.0
13/09:30am 12.4 1.8 4.9 60 3.5 W 50 78 27 42 1009.8 - 0.0
13/09:00am 10.6 -0.8 4.9 68 2.6 W 54 85 29 46 1009.5 1009.5 2.8
13/08:32am 11.5 -0.1 6.0 69 2.6 W 56 74 30 40 1009.5 - 2.8
13/08:30am 11.5 0.4 6.4 71 2.4 W 54 70 29 38 1009.6 - 2.8
13/08:00am 10.3 0.6 5.7 73 2.1 W 46 67 25 36 1010.0 - 2.8
13/07:30am 11.3 -1.1 4.7 64 3.0 W 59 78 32 42 1009.4 - 2.6
13/07:01am 11.0 -2.2 4.7 65 2.9 W 63 82 34 44 1009.3 - 2.6
13/07:00am 11.0 -2.5 4.7 65 2.9 W 65 82 35 44 1009.2 - 2.6
13/06:36am 10.5 -1.7 5.5 71 2.3 W 59 78 32 42 1008.9 - 2.6
13/06:30am 10.4 -2.9 5.6 72 2.2 W 65 78 35 42 1008.7 - 2.6
13/06:00am 10.2 -2.9 4.8 69 2.4 W 63 87 34 47 1008.3 1008.3 2.6
13/05:34am 10.1 -2.6 5.1 71 2.3 W 61 80 33 43 1008.1 - 2.6
13/05:30am 10.1 -2.6 5.3 72 2.2 W 61 78 33 42 1008.4 - 2.6
13/05:00am 9.0 -2.8 4.8 75 1.9 W 56 76 30 41 1008.4 - 2.6
13/04:36am 9.6 -3.2 4.8 72 2.2 W 61 83 33 45 1008.4 - 2.4
13/04:30am 9.3 -3.5 4.3 71 2.2 W 61 78 33 42 1008.4 - 2.4
13/04:02am 10.4 -2.3 5.0 69 2.5 W 61 80 33 43 1008.5 - 2.2
13/04:00am 10.3 -2.9 4.7 68 2.5 W 63 80 34 43 1008.1 - 2.2
13/03:57am 10.2 -3.7 4.6 68 2.5 WSW 67 78 36 42 1008.0 - 2.2
13/03:30am 9.8 0.4 5.4 74 2.0 W 44 63 24 34 1008.6 - 2.2
13/03:00am 9.5 -1.5 4.9 73 2.1 W 52 76 28 41 1008.8 1008.8 2.2
13/02:43am 8.8 -0.5 4.8 76 1.8 W 43 76 23 41 1009.4 - 2.2
13/02:30am 8.0 -5.7 4.0 76 1.7 WSW 65 98 35 53 1008.9 - 2.2
13/02:28am 8.1 -6.3 4.3 77 1.7 WSW 69 98 37 53 1008.7 - 2.2
13/02:26am 7.9 -6.7 4.3 78 1.6 WSW 70 111 38 60 1008.4 - 2.2
13/02:18am 8.8 -10.2 4.0 72 2.1 WSW 93 113 50 61 1007.3 - 1.2
13/02:16am 10.2 -2.7 3.9 65 2.8 W 61 113 33 61 1008.1 - 1.0
13/02:00am 10.2 -1.7 4.1 66 2.7 W 56 76 30 41 1009.1 - 1.0
13/01:30am 10.2 -3.9 3.7 64 2.9 W 67 87 36 47 1008.5 - 1.0
13/01:00am 9.9 -2.2 4.3 68 2.5 W 57 80 31 43 1008.6 - 1.0
13/12:30am 10.3 -1.3 4.0 65 2.8 W 54 83 29 45 1009.0 - 1.0
13/12:00am 9.8 -2.8 3.5 65 2.8 W 59 82 32 44 1008.8 1008.8 1.0
 
Date/Time
EDT
Temp
°C
App
Temp
°C
Dew
Point
°C
Rel
Hum
%
Delta-T
°C
Wind Press
QNH
hPa
Press
MSL
hPa
Rain since
9am
mm
Dir  Spd
km/h
Gust
km/h
Spd
kts
Gust
kts
12/11:30pm 9.8 -2.2 3.8 66 2.6 W 56 76 30 41 1009.0 - 1.0
12/11:00pm 10.1 -2.0 4.0 66 2.7 W 57 83 31 45 1008.3 - 1.0
12/10:30pm 10.2 -1.4 4.1 66 2.7 W 54 72 29 39 1008.2 - 1.0
12/10:00pm 9.5 -3.8 3.9 68 2.5 W 63 83 34 45 1008.2 - 1.0
12/09:30pm 9.1 -4.1 4.7 74 2.0 W 63 96 34 52 1007.5 - 1.0
12/09:19pm 9.3 -5.0 4.9 74 2.0 WSW 69 100 37 54 1006.6 - 0.6
12/09:06pm 9.7 -2.7 4.7 71 2.2 W 59 78 32 42 1007.2 - 0.6
12/09:00pm 10.0 -2.0 5.0 71 2.3 W 57 72 31 39 1007.3 1007.3 0.6
12/08:30pm 10.2 -1.8 5.0 70 2.4 W 57 87 31 47 1007.0 - 0.6
12/08:00pm 10.8 -1.0 5.8 71 2.3 W 57 87 31 47 1006.3 - 0.4
12/07:30pm 10.4 -1.9 5.0 69 2.5 W 59 89 32 48 1006.9 - 0.2
12/07:26pm 10.3 -3.5 5.1 70 2.4 W 67 89 36 48 1006.1 - 0.2
12/07:24pm 10.3 -3.5 5.3 71 2.3 W 67 80 36 43 1006.0 - 0.2
12/07:00pm 10.9 1.6 5.0 67 2.7 W 43 76 23 41 1006.7 - 0.2
12/06:59pm 10.9 2.0 5.0 67 2.7 W 41 76 22 41 1006.7 - 0.2
12/06:30pm 11.1 -2.0 4.8 65 2.9 W 63 91 34 49 1005.5 - 0.2
12/06:00pm 11.5 -0.4 5.4 66 2.8 W 57 83 31 45 1005.5 1005.4 0.2
12/05:30pm 10.1 -0.8 5.5 73 2.1 W 52 74 28 40 1005.8 - 0.2
12/05:00pm 11.7 1.1 4.9 63 3.1 W 50 76 27 41 1004.8 - 0.0
12/04:30pm 11.9 2.6 5.8 66 2.9 W 44 65 24 35 1005.2 - 0.0
12/04:00pm 11.2 0.3 5.5 68 2.6 W 52 76 28 41 1004.9 - 0.0
12/03:30pm 12.3 0.5 5.0 61 3.4 W 56 78 30 42 1004.9 - 0.0
12/03:00pm 13.0 2.0 5.2 59 3.7 W 52 74 28 40 1005.0 1005.0 0.0
12/02:30pm 13.7 4.0 5.6 58 3.8 W 46 70 25 38 1004.9 - 0.0
12/02:00pm 12.6 0.9 5.3 61 3.4 W 56 83 30 45 1004.9 - 0.0
12/01:30pm 12.6 1.1 6.2 65 3.0 W 56 87 30 47 1005.0 - 0.0
12/01:00pm 12.5 1.9 5.2 61 3.4 W 50 76 27 41 1004.7 - 0.0
12/12:30pm 13.0 1.7 5.2 59 3.6 W 54 74 29 40 1004.4 - 0.0
12/12:00pm 13.0 0.3 5.2 59 3.7 W 61 82 33 44 1003.9 1003.9 0.0

Other formats

Comma delimited format used in spreadsheet applications
http://www.bom.gov.au/fwo/IDV60801/IDV60801.94893.axf

JavaScript Object Notation format (JSON) in row-major order
http://www.bom.gov.au/fwo/IDV60801/IDV60801.94893.json

Data quality

Most of these data are generated automatically and are frequently updated. Quality checks on data are not normally performed. It is possible for incorrect values to appear. Refer to information at About Latest Weather Observations and please check the disclaimer before using these data.